createdAt,value
2022-12-13T00:00:44.689Z,-7.85
2022-12-13T00:03:15.935Z,-7.85
2022-12-13T00:05:47.183Z,-7.97
2022-12-13T00:08:18.525Z,-7.91
2022-12-13T00:11:02.686Z,-7.83
2022-12-13T00:13:34.300Z,-7.85
2022-12-13T00:16:08.389Z,-7.84
2022-12-13T00:18:39.999Z,-7.84
2022-12-13T00:21:14.790Z,-7.84
2022-12-13T00:23:47.199Z,-7.86
2022-12-13T00:26:24.635Z,-7.84
2022-12-13T00:28:58.415Z,-7.91
2022-12-13T00:34:23.474Z,-8.05
2022-12-13T00:36:55.308Z,-7.93
2022-12-13T00:39:26.794Z,-8.12
2022-12-13T00:41:58.157Z,-7.97
2022-12-13T00:44:29.472Z,-7.98
2022-12-13T00:47:00.779Z,-8.00
2022-12-13T00:49:32.049Z,-7.97
2022-12-13T00:52:03.441Z,-7.98
2022-12-13T00:54:34.864Z,-8.00
2022-12-13T00:57:06.131Z,-8.11
2022-12-13T00:59:37.387Z,-8.00
2022-12-13T01:02:08.640Z,-8.00
2022-12-13T01:04:40.040Z,-7.91
2022-12-13T01:07:11.295Z,-8.03
2022-12-13T01:09:42.627Z,-7.79
2022-12-13T01:12:13.881Z,-7.69
2022-12-13T01:14:45.136Z,-7.60
2022-12-13T01:17:16.416Z,-7.53
2022-12-13T01:19:47.715Z,-7.50
2022-12-13T01:22:19.038Z,-7.48
2022-12-13T01:24:50.326Z,-7.48
2022-12-13T01:27:21.616Z,-7.49
2022-12-13T01:29:52.864Z,-7.48
2022-12-13T01:32:24.285Z,-7.57
2022-12-13T01:34:55.596Z,-7.50
2022-12-13T01:37:26.901Z,-7.52
2022-12-13T01:39:58.611Z,-7.55
2022-12-13T01:42:30.108Z,-7.66
2022-12-13T01:45:12.106Z,-7.52
2022-12-13T01:47:50.851Z,-7.59
2022-12-13T01:50:26.644Z,-7.52
2022-12-13T01:53:00.232Z,-7.60
2022-12-13T01:55:41.320Z,-7.54
2022-12-13T01:58:14.888Z,-7.54
2022-12-13T02:00:47.625Z,-7.55
2022-12-13T02:03:22.019Z,-7.71
2022-12-13T02:06:12.873Z,-7.61
2022-12-13T02:08:45.647Z,-7.70
2022-12-13T02:11:17.028Z,-7.67
2022-12-13T02:13:48.323Z,-7.68
2022-12-13T02:16:45.540Z,-7.70
2022-12-13T02:19:38.376Z,-7.73
2022-12-13T02:22:56.989Z,-7.77
2022-12-13T02:25:45.578Z,-7.83
2022-12-13T02:28:38.959Z,-7.88
2022-12-13T02:31:18.106Z,-7.89
2022-12-13T02:33:56.667Z,-7.95
2022-12-13T02:36:38.543Z,-7.96
2022-12-13T02:39:30.332Z,-8.10
2022-12-13T02:42:21.973Z,-7.96
2022-12-13T02:45:17.174Z,-7.96
2022-12-13T02:47:55.653Z,-7.94
2022-12-13T02:50:27.596Z,-7.93
2022-12-13T02:53:00.855Z,-7.98
2022-12-13T02:56:13.528Z,-7.92
2022-12-13T02:58:48.992Z,-8.06
2022-12-13T03:01:40.370Z,-7.85
2022-12-13T03:05:00.015Z,-7.75
2022-12-13T03:07:49.622Z,-7.61
2022-12-13T03:10:31.337Z,-7.44
2022-12-13T03:13:27.287Z,-7.31
2022-12-13T03:16:07.803Z,-7.16
2022-12-13T03:18:40.637Z,-7.03
2022-12-13T03:21:12.184Z,-7.08
2022-12-13T03:23:43.449Z,-6.84
2022-12-13T03:26:18.719Z,-6.79
2022-12-13T03:28:51.215Z,-6.72
2022-12-13T03:31:22.549Z,-6.57
2022-12-13T03:33:53.932Z,-6.51
2022-12-13T03:36:25.606Z,-6.46
2022-12-13T03:38:57.133Z,-6.35
2022-12-13T03:41:32.727Z,-6.19
2022-12-13T03:44:05.912Z,-6.26
2022-12-13T03:46:37.208Z,-6.14
2022-12-13T03:49:11.373Z,-6.00
2022-12-13T03:51:46.623Z,-5.98
2022-12-13T03:54:17.946Z,-5.97
2022-12-13T03:56:49.190Z,-5.83
2022-12-13T03:59:20.684Z,-5.79
2022-12-13T04:01:52.070Z,-5.77
2022-12-13T04:04:23.394Z,-5.86
2022-12-13T04:06:54.628Z,-5.76
2022-12-13T04:09:25.911Z,-5.77
2022-12-13T04:12:15.818Z,-5.79
2022-12-13T04:14:47.074Z,-5.92
2022-12-13T04:17:18.312Z,-5.80
2022-12-13T04:19:49.585Z,-5.79
2022-12-13T04:22:24.852Z,-5.90
2022-12-13T04:24:56.335Z,-5.77
2022-12-13T04:27:27.579Z,-5.74
2022-12-13T04:29:58.963Z,-5.76
2022-12-13T04:32:30.281Z,-5.68
2022-12-13T04:35:01.831Z,-5.71
2022-12-13T04:37:33.191Z,-5.54
2022-12-13T04:40:05.143Z,-5.44
2022-12-13T04:42:36.547Z,-5.41
2022-12-13T04:45:09.194Z,-5.24
2022-12-13T04:47:40.443Z,-5.14
2022-12-13T04:50:13.512Z,-5.11
2022-12-13T04:52:44.858Z,-5.12
2022-12-13T04:55:16.515Z,-5.44
2022-12-13T04:57:48.146Z,-5.02
2022-12-13T05:00:21.946Z,-5.01
2022-12-13T05:02:53.310Z,-4.97
2022-12-13T05:05:24.819Z,-4.94
2022-12-13T05:07:56.094Z,-4.90
2022-12-13T05:10:34.245Z,-4.85
2022-12-13T05:13:09.073Z,-4.83
2022-12-13T05:15:40.391Z,-4.87
2022-12-13T05:18:11.692Z,-4.78
2022-12-13T05:20:42.999Z,-4.85
2022-12-13T05:23:14.297Z,-4.72
2022-12-13T05:25:54.102Z,-4.67
2022-12-13T05:28:28.940Z,-4.64
2022-12-13T05:31:23.150Z,-4.58
2022-12-13T05:34:01.427Z,-4.63
2022-12-13T05:36:33.028Z,-4.57
2022-12-13T05:39:04.292Z,-4.63
2022-12-13T05:41:36.936Z,-4.56
2022-12-13T05:44:10.295Z,-4.61
2022-12-13T05:46:41.847Z,-4.61
2022-12-13T05:49:13.091Z,-4.71
2022-12-13T05:51:44.430Z,-4.91
2022-12-13T05:54:15.839Z,-4.91
2022-12-13T05:56:47.180Z,-4.92
2022-12-13T05:59:18.776Z,-4.90
2022-12-13T06:01:50.115Z,-4.90
2022-12-13T06:04:22.652Z,-4.87
2022-12-13T06:06:54.923Z,-5.31
2022-12-13T06:09:26.219Z,-4.81
2022-12-13T06:12:00.995Z,-4.71
2022-12-13T06:14:32.692Z,-4.76
2022-12-13T06:17:04.584Z,-4.61
2022-12-13T06:19:35.840Z,-4.52
2022-12-13T06:22:07.194Z,-4.45
2022-12-13T06:24:38.812Z,-4.41
2022-12-13T06:27:10.335Z,-4.52
2022-12-13T06:29:42.054Z,-4.48
2022-12-13T06:32:13.734Z,-4.46
2022-12-13T06:34:44.976Z,-4.55
2022-12-13T06:37:16.279Z,-4.49
2022-12-13T06:39:48.151Z,-4.57
2022-12-13T06:42:22.239Z,-4.89
2022-12-13T06:44:56.176Z,-4.64
2022-12-13T06:47:32.152Z,-4.67
2022-12-13T06:50:05.560Z,-4.78
2022-12-13T06:52:38.036Z,-4.92
2022-12-13T06:55:09.682Z,-5.17
2022-12-13T06:57:41.435Z,-5.24
2022-12-13T07:00:13.573Z,-5.25
2022-12-13T07:02:44.947Z,-5.36
2022-12-13T07:05:16.265Z,-5.42
2022-12-13T07:07:47.694Z,-5.50
2022-12-13T07:10:22.927Z,-5.68
2022-12-13T07:12:54.360Z,-5.64
2022-12-13T07:15:25.614Z,-5.72
2022-12-13T07:17:56.877Z,-5.88
2022-12-13T07:20:28.196Z,-6.15
2022-12-13T07:22:59.526Z,-5.94
2022-12-13T07:25:30.772Z,-6.06
2022-12-13T07:28:05.277Z,-6.14
2022-12-13T07:30:40.482Z,-6.06
2022-12-13T07:33:13.939Z,-6.15
2022-12-13T07:36:00.549Z,-6.41
2022-12-13T07:38:31.805Z,-6.12
2022-12-13T07:41:04.044Z,-6.25
2022-12-13T07:43:35.960Z,-6.21
2022-12-13T07:46:08.117Z,-6.23
2022-12-13T07:48:39.404Z,-6.31
2022-12-13T07:51:14.844Z,-6.25
2022-12-13T07:53:46.107Z,-6.36
2022-12-13T07:56:17.369Z,-6.34
2022-12-13T07:58:48.713Z,-6.31
2022-12-13T08:01:20.054Z,-6.31
2022-12-13T08:03:51.380Z,-6.52
2022-12-13T08:06:22.682Z,-6.32
2022-12-13T08:08:57.628Z,-6.47
2022-12-13T08:11:28.920Z,-6.41
2022-12-13T08:14:00.532Z,-6.35
2022-12-13T08:16:31.981Z,-6.51
2022-12-13T08:19:04.723Z,-6.30
2022-12-13T08:21:55.816Z,-6.27
2022-12-13T08:24:30.003Z,-6.27
2022-12-13T08:27:03.189Z,-6.22
2022-12-13T08:29:36.172Z,-6.25
2022-12-13T08:32:10.109Z,-6.27
2022-12-13T08:34:42.157Z,-6.16
2022-12-13T08:37:13.653Z,-6.12
2022-12-13T08:39:44.990Z,-6.08
2022-12-13T08:42:20.087Z,-6.03
2022-12-13T08:44:53.272Z,-6.12
2022-12-13T08:47:26.849Z,-6.13
2022-12-13T08:50:02.961Z,-5.90
2022-12-13T08:52:40.368Z,-5.83
2022-12-13T08:55:14.670Z,-5.77
2022-12-13T08:57:46.063Z,-5.74
2022-12-13T09:00:19.778Z,-5.68
2022-12-13T09:02:51.279Z,-5.63
2022-12-13T09:05:34.249Z,-5.66
2022-12-13T09:08:24.080Z,-5.46
2022-12-13T09:10:59.417Z,-5.48
2022-12-13T09:13:33.191Z,-5.28
2022-12-13T09:16:14.330Z,-5.19
2022-12-13T09:18:56.082Z,-5.12
2022-12-13T09:21:31.769Z,-5.12
2022-12-13T09:24:03.598Z,-5.10
2022-12-13T09:26:38.314Z,-4.85
2022-12-13T09:29:11.717Z,-4.77
2022-12-13T09:31:47.103Z,-4.70
2022-12-13T09:34:24.033Z,-4.72
2022-12-13T09:36:55.305Z,-4.52
2022-12-13T09:39:33.029Z,-4.39
2022-12-13T09:42:10.587Z,-4.41
2022-12-13T09:45:03.247Z,-4.23
2022-12-13T09:47:47.473Z,-4.12
2022-12-13T09:50:27.082Z,-4.13
2022-12-13T09:53:01.161Z,-3.99
2022-12-13T09:55:44.108Z,-3.86
2022-12-13T09:58:21.514Z,-3.77
2022-12-13T10:00:55.551Z,-3.80
2022-12-13T10:03:26.915Z,-3.69
2022-12-13T10:06:00.623Z,-3.45
2022-12-13T10:08:57.521Z,-3.48
2022-12-13T10:11:31.819Z,-3.34
2022-12-13T10:14:16.174Z,-3.38
2022-12-13T10:16:51.893Z,-3.20
2022-12-13T10:19:30.206Z,-3.25
2022-12-13T10:22:04.596Z,-3.10
2022-12-13T10:24:52.812Z,-2.95
2022-12-13T10:27:29.312Z,-3.06
2022-12-13T10:30:06.458Z,-2.88
2022-12-13T10:32:54.914Z,-2.85
2022-12-13T10:35:29.197Z,-2.84
2022-12-13T10:38:03.258Z,-2.86
2022-12-13T10:40:48.814Z,-2.80
2022-12-13T10:43:26.267Z,-2.75
2022-12-13T10:45:59.798Z,-2.66
2022-12-13T10:48:39.405Z,-2.53
2022-12-13T10:51:17.839Z,-2.35
2022-12-13T10:53:58.813Z,-2.27
2022-12-13T10:56:37.107Z,-2.17
2022-12-13T10:59:16.992Z,-1.90
2022-12-13T11:01:48.771Z,-1.72
2022-12-13T11:04:31.491Z,-1.54
2022-12-13T11:07:22.915Z,-1.30
2022-12-13T11:09:54.205Z,-1.15
2022-12-13T11:12:27.196Z,-1.01
2022-12-13T11:15:07.628Z,-0.92
2022-12-13T11:17:49.679Z,-0.79
2022-12-13T11:20:27.174Z,-0.59
2022-12-13T11:23:04.606Z,-0.59
2022-12-13T11:25:40.744Z,-0.35
2022-12-13T11:28:37.602Z,-0.24
2022-12-13T11:31:19.079Z,-0.30
2022-12-13T11:34:11.428Z,-0.18
2022-12-13T11:37:06.071Z,0.02
2022-12-13T11:39:43.178Z,0.10
2022-12-13T11:42:38.355Z,0.18
2022-12-13T11:45:25.482Z,0.14
2022-12-13T11:48:09.449Z,0.26
2022-12-13T11:50:46.002Z,0.22
2022-12-13T11:53:46.299Z,0.10
2022-12-13T11:56:31.561Z,0.18
2022-12-13T11:59:19.113Z,0.21
2022-12-13T12:02:04.877Z,0.20
2022-12-13T12:05:05.758Z,0.08
2022-12-13T12:08:05.650Z,0.18
2022-12-13T12:10:50.080Z,0.28
2022-12-13T12:13:29.040Z,0.31
2022-12-13T12:16:13.334Z,0.27
2022-12-13T12:18:44.793Z,0.44
2022-12-13T12:22:05.074Z,0.49
2022-12-13T12:24:48.076Z,0.55
2022-12-13T12:27:50.158Z,0.49
2022-12-13T12:30:59.237Z,0.60
2022-12-13T12:33:58.440Z,0.51
2022-12-13T12:36:51.827Z,0.41
2022-12-13T12:39:29.888Z,0.37
2022-12-13T12:42:26.478Z,0.35
2022-12-13T12:45:55.911Z,0.32
2022-12-13T12:49:00.737Z,0.28
2022-12-13T12:51:36.742Z,0.18
2022-12-13T12:54:33.181Z,0.24
2022-12-13T12:57:21.130Z,0.21
2022-12-13T13:00:03.217Z,0.06
2022-12-13T13:02:42.840Z,-0.10
2022-12-13T13:05:32.156Z,-0.14
2022-12-13T13:08:15.729Z,-0.38
2022-12-13T13:10:49.770Z,-0.39
2022-12-13T13:13:35.475Z,-0.36
2022-12-13T13:16:27.014Z,-0.42
2022-12-13T13:19:00.579Z,-0.50
2022-12-13T13:21:33.669Z,-0.57
2022-12-13T13:24:07.072Z,-0.71
2022-12-13T13:26:44.539Z,-0.64
2022-12-13T13:29:27.343Z,-0.70
2022-12-13T13:32:11.755Z,-0.77
2022-12-13T13:34:45.621Z,-0.81
2022-12-13T13:37:25.688Z,-0.83
2022-12-13T13:40:00.523Z,-0.84
2022-12-13T13:42:32.867Z,-0.83
2022-12-13T13:45:24.713Z,-0.83
2022-12-13T13:48:14.651Z,-0.91
2022-12-13T13:51:12.557Z,-0.92
2022-12-13T13:54:25.643Z,-1.03
2022-12-13T13:57:33.178Z,-1.16
2022-12-13T14:00:41.019Z,-1.21
2022-12-13T14:03:58.345Z,-1.32
2022-12-13T14:07:01.054Z,-1.45
2022-12-13T14:10:07.805Z,-1.43
2022-12-13T14:13:21.283Z,-1.50
2022-12-13T14:16:37.250Z,-1.58
2022-12-13T14:19:20.682Z,-1.67
2022-12-13T14:22:08.795Z,-1.88
2022-12-13T14:25:23.276Z,-1.80
2022-12-13T14:28:01.030Z,-1.89
2022-12-13T14:30:33.405Z,-1.94
2022-12-13T14:33:04.812Z,-2.02
2022-12-13T14:35:36.076Z,-2.05
2022-12-13T14:38:22.652Z,-2.25
2022-12-13T14:40:58.546Z,-2.20
2022-12-13T14:43:34.816Z,-2.51
2022-12-13T14:46:07.661Z,-2.38
2022-12-13T14:48:49.259Z,-2.75
2022-12-13T14:51:30.948Z,-3.26
2022-12-13T14:54:04.711Z,-3.22
2022-12-13T14:56:53.401Z,-3.28
2022-12-13T14:59:25.512Z,-3.13
2022-12-13T15:02:00.275Z,-2.82
2022-12-13T15:04:34.235Z,-2.96
2022-12-13T15:07:25.138Z,-3.00
2022-12-13T15:10:00.629Z,-3.16
2022-12-13T15:12:32.064Z,-3.13
2022-12-13T15:15:08.405Z,-3.21
2022-12-13T15:17:40.237Z,-3.45
2022-12-13T15:20:31.424Z,-3.37
2022-12-13T15:23:18.808Z,-3.45
2022-12-13T15:25:57.361Z,-3.52
2022-12-13T15:28:33.909Z,-3.76
2022-12-13T15:31:06.283Z,-3.77
2022-12-13T15:33:48.207Z,-3.73
2022-12-13T15:36:27.166Z,-3.87
2022-12-13T15:39:01.576Z,-3.81
2022-12-13T15:41:42.963Z,-3.80
2022-12-13T15:44:26.157Z,-3.96
2022-12-13T15:47:28.730Z,-3.91
2022-12-13T15:50:05.171Z,-3.98
2022-12-13T15:52:38.980Z,-4.04
2022-12-13T15:55:10.682Z,-4.04
2022-12-13T15:57:54.205Z,-4.08
2022-12-13T16:00:31.806Z,-4.11
2022-12-13T16:03:11.141Z,-4.16
2022-12-13T16:05:49.952Z,-4.20
2022-12-13T16:08:37.406Z,-4.39
2022-12-13T16:11:09.151Z,-4.40
2022-12-13T16:13:47.548Z,-4.45
2022-12-13T16:16:29.787Z,-4.36
2022-12-13T16:19:01.116Z,-4.38
2022-12-13T16:21:32.426Z,-4.51
2022-12-13T16:24:03.849Z,-4.58
2022-12-13T16:26:35.161Z,-4.54
2022-12-13T16:29:11.604Z,-4.58
2022-12-13T16:31:44.013Z,-4.61
2022-12-13T16:34:18.196Z,-4.74
2022-12-13T16:36:49.552Z,-4.77
2022-12-13T16:39:21.091Z,-4.74
2022-12-13T16:41:53.948Z,-4.78
2022-12-13T16:44:35.902Z,-4.77
2022-12-13T16:47:18.292Z,-4.81
2022-12-13T16:49:51.758Z,-4.87
2022-12-13T16:52:23.042Z,-4.96
2022-12-13T16:54:54.289Z,-5.00
2022-12-13T16:57:25.552Z,-5.09
2022-12-13T16:59:56.798Z,-5.10
2022-12-13T17:02:28.116Z,-5.14
2022-12-13T17:04:59.408Z,-5.19
2022-12-13T17:07:30.872Z,-5.31
2022-12-13T17:10:02.835Z,-5.27
2022-12-13T17:12:34.099Z,-5.31
2022-12-13T17:15:06.330Z,-5.31
2022-12-13T17:17:38.949Z,-5.34
2022-12-13T17:20:13.168Z,-5.37
2022-12-13T17:22:45.103Z,-5.41
2022-12-13T17:25:16.804Z,-5.45
2022-12-13T17:27:48.200Z,-5.47
2022-12-13T17:30:19.548Z,-5.51
2022-12-13T17:32:50.876Z,-5.53
2022-12-13T17:35:22.214Z,-5.52
2022-12-13T17:37:54.662Z,-5.52
2022-12-13T17:40:26.003Z,-5.51
2022-12-13T17:42:57.308Z,-5.47
2022-12-13T17:45:28.568Z,-5.47
2022-12-13T17:47:59.937Z,-5.46
2022-12-13T17:50:31.209Z,-5.46
2022-12-13T17:53:02.472Z,-5.59
2022-12-13T17:55:33.734Z,-5.56
2022-12-13T17:58:05.701Z,-5.43
2022-12-13T18:00:37.667Z,-5.35
2022-12-13T18:03:08.972Z,-5.34
2022-12-13T18:05:40.388Z,-5.33
2022-12-13T18:08:11.953Z,-5.47
2022-12-13T18:10:43.214Z,-5.36
2022-12-13T18:13:14.776Z,-5.32
2022-12-13T18:15:46.052Z,-5.51
2022-12-13T18:18:17.790Z,-5.31
2022-12-13T18:20:49.591Z,-5.31
2022-12-13T18:23:21.404Z,-5.32
2022-12-13T18:25:59.644Z,-5.32
2022-12-13T18:28:30.993Z,-5.35
2022-12-13T18:31:04.754Z,-5.32
2022-12-13T18:33:36.344Z,-5.31
2022-12-13T18:36:08.854Z,-5.55
2022-12-13T18:38:42.378Z,-5.31
2022-12-13T18:41:20.094Z,-5.30
2022-12-13T18:43:59.556Z,-5.32
2022-12-13T18:46:34.469Z,-5.33
2022-12-13T18:49:06.532Z,-5.34
2022-12-13T18:51:37.925Z,-5.43
2022-12-13T18:54:09.511Z,-5.36
2022-12-13T18:56:40.964Z,-5.40
2022-12-13T18:59:12.395Z,-5.40
2022-12-13T19:01:44.215Z,-5.55
2022-12-13T19:04:15.536Z,-5.40
2022-12-13T19:06:46.779Z,-5.44
2022-12-13T19:09:18.180Z,-5.56
2022-12-13T19:11:49.754Z,-5.46
2022-12-13T19:14:25.423Z,-5.47
2022-12-13T19:16:58.372Z,-5.59
2022-12-13T19:19:29.721Z,-5.42
2022-12-13T19:22:00.966Z,-5.54
2022-12-13T19:24:32.245Z,-5.44
2022-12-13T19:27:03.594Z,-5.45
2022-12-13T19:29:34.968Z,-5.58
2022-12-13T19:32:06.955Z,-5.51
2022-12-13T19:34:38.500Z,-5.52
2022-12-13T19:37:10.468Z,-5.63
2022-12-13T19:39:41.799Z,-5.56
2022-12-13T19:42:13.107Z,-5.57
2022-12-13T19:44:44.363Z,-5.59
2022-12-13T19:47:16.312Z,-5.60
2022-12-13T19:49:47.724Z,-5.60
2022-12-13T19:52:19.766Z,-5.62
2022-12-13T19:54:51.026Z,-5.66
2022-12-13T19:57:22.344Z,-5.68
2022-12-13T19:59:53.716Z,-5.68
2022-12-13T20:02:25.804Z,-5.76
2022-12-13T20:04:57.051Z,-5.73
2022-12-13T20:07:28.627Z,-5.74
2022-12-13T20:09:59.993Z,-5.80
2022-12-13T20:12:37.010Z,-5.98
2022-12-13T20:15:11.892Z,-5.88
2022-12-13T20:17:43.146Z,-5.86
2022-12-13T20:20:14.531Z,-5.87
2022-12-13T20:22:46.560Z,-5.88
2022-12-13T20:25:19.812Z,-5.88
2022-12-13T20:27:51.090Z,-5.89
2022-12-13T20:30:22.494Z,-6.02
2022-12-13T20:32:54.198Z,-6.05
2022-12-13T20:35:25.607Z,-6.01
2022-12-13T20:37:56.940Z,-5.91
2022-12-13T20:40:28.188Z,-6.00
2022-12-13T20:42:59.462Z,-6.42
2022-12-13T20:45:32.036Z,-6.08
2022-12-13T20:48:03.387Z,-6.03
2022-12-13T20:50:34.887Z,-6.01
2022-12-13T20:53:06.233Z,-6.14
2022-12-13T20:55:38.105Z,-6.06
2022-12-13T20:58:10.307Z,-6.24
2022-12-13T21:00:41.637Z,-6.28
2022-12-13T21:03:12.921Z,-6.38
2022-12-13T21:05:46.438Z,-6.27
2022-12-13T21:08:37.221Z,-6.35
2022-12-13T21:11:26.916Z,-6.30
2022-12-13T21:14:18.544Z,-6.34
2022-12-13T21:17:00.039Z,-6.71
2022-12-13T21:19:39.794Z,-6.42
2022-12-13T21:22:12.690Z,-6.43
2022-12-13T21:24:43.957Z,-6.43
2022-12-13T21:27:15.212Z,-6.61
2022-12-13T21:29:46.496Z,-6.61
2022-12-13T21:32:17.809Z,-6.43
2022-12-13T21:34:49.064Z,-6.47
2022-12-13T21:37:20.320Z,-6.45
2022-12-13T21:39:51.651Z,-6.54
2022-12-13T21:42:22.893Z,-6.50
2022-12-13T21:44:58.896Z,-6.53
2022-12-13T21:47:33.188Z,-6.56
2022-12-13T21:50:04.806Z,-6.60
2022-12-13T21:52:36.122Z,-6.61
2022-12-13T21:55:37.914Z,-6.55
2022-12-13T21:58:17.940Z,-6.54
2022-12-13T22:00:49.279Z,-6.70
2022-12-13T22:03:20.554Z,-6.54
2022-12-13T22:05:51.890Z,-6.54
2022-12-13T22:08:23.154Z,-6.50
2022-12-13T22:11:17.754Z,-6.65
2022-12-13T22:13:52.255Z,-6.67
2022-12-13T22:16:23.571Z,-6.65
2022-12-13T22:18:55.479Z,-6.55
2022-12-13T22:21:26.957Z,-6.76
2022-12-13T22:23:58.302Z,-6.58
2022-12-13T22:26:29.567Z,-6.75
2022-12-13T22:29:00.837Z,-6.76
2022-12-13T22:31:33.511Z,-6.58
2022-12-13T22:34:04.828Z,-6.71
2022-12-13T22:36:36.172Z,-6.58
2022-12-13T22:39:07.704Z,-6.56
2022-12-13T22:41:38.967Z,-6.57
2022-12-13T22:44:14.027Z,-6.56
2022-12-13T22:46:45.352Z,-6.54
2022-12-13T22:49:16.761Z,-6.60
2022-12-13T22:51:48.245Z,-6.57
2022-12-13T22:54:19.525Z,-6.53
2022-12-13T22:56:51.670Z,-6.55
2022-12-13T22:59:22.917Z,-6.57
2022-12-13T23:02:02.111Z,-6.53
2022-12-13T23:04:34.108Z,-6.55
2022-12-13T23:07:05.877Z,-6.56
2022-12-13T23:09:37.209Z,-6.69
2022-12-13T23:12:29.008Z,-6.59
2022-12-13T23:15:00.239Z,-6.70
2022-12-13T23:17:31.601Z,-6.67
2022-12-13T23:20:04.349Z,-6.82
2022-12-13T23:22:35.676Z,-6.67
2022-12-13T23:25:07.352Z,-6.67
2022-12-13T23:27:38.616Z,-6.70
2022-12-13T23:30:10.668Z,-6.65
2022-12-13T23:32:42.219Z,-6.74
2022-12-13T23:35:13.490Z,-6.60
2022-12-13T23:37:44.774Z,-6.57
2022-12-13T23:40:19.813Z,-6.84
2022-12-13T23:42:51.097Z,-6.49
2022-12-13T23:45:23.506Z,-6.45
2022-12-13T23:47:54.784Z,-6.47
2022-12-13T23:50:26.171Z,-6.45
2022-12-13T23:52:57.451Z,-6.61
2022-12-13T23:55:28.693Z,-6.42
2022-12-13T23:57:59.945Z,-6.45
